createdAt,value
2018-07-23T00:01:11.666Z,35.60
2018-07-23T00:06:14.382Z,35.50
2018-07-23T00:08:47.375Z,35.50
2018-07-23T00:11:19.146Z,35.50
2018-07-23T00:13:51.614Z,35.50
2018-07-23T00:16:23.202Z,35.50
2018-07-23T00:18:55.138Z,35.50
2018-07-23T00:21:26.919Z,35.50
2018-07-23T00:26:29.914Z,35.40
2018-07-23T00:29:02.818Z,35.40
2018-07-23T00:31:34.459Z,35.40
2018-07-23T00:34:06.806Z,35.40
2018-07-23T00:36:38.650Z,35.50
2018-07-23T00:39:11.134Z,35.40
2018-07-23T00:41:42.898Z,35.30
2018-07-23T00:44:15.027Z,35.30
2018-07-23T00:46:47.856Z,35.30
2018-07-23T00:49:20.411Z,35.30
2018-07-23T00:51:52.216Z,35.30
2018-07-23T00:54:24.184Z,35.20
2018-07-23T00:56:56.066Z,35.20
2018-07-23T00:59:28.093Z,35.20
2018-07-23T01:01:59.923Z,35.10
2018-07-23T01:04:31.957Z,35.10
2018-07-23T01:07:03.615Z,35.10
2018-07-23T01:09:35.661Z,35.10
2018-07-23T01:12:07.546Z,35.20
2018-07-23T01:14:39.819Z,35.20
2018-07-23T01:17:11.657Z,35.10
2018-07-23T01:19:43.859Z,35.10
2018-07-23T01:22:15.882Z,35.10
2018-07-23T01:24:47.994Z,35.10
2018-07-23T01:27:20.494Z,35.10
2018-07-23T01:29:52.725Z,35.00
2018-07-23T01:32:24.331Z,35.00
2018-07-23T01:34:57.289Z,35.00
2018-07-23T01:37:28.998Z,34.90
2018-07-23T01:40:01.001Z,34.90
2018-07-23T01:42:32.936Z,34.90
2018-07-23T01:45:05.055Z,34.90
2018-07-23T01:47:37.919Z,34.90
2018-07-23T01:50:09.958Z,34.90
2018-07-23T01:52:42.285Z,34.90
2018-07-23T01:55:14.393Z,34.90
2018-07-23T01:57:46.150Z,34.80
2018-07-23T02:00:19.290Z,34.90
2018-07-23T02:02:51.179Z,34.90
2018-07-23T02:05:23.398Z,34.90
2018-07-23T02:07:55.248Z,34.90
2018-07-23T02:10:27.322Z,34.90
2018-07-23T02:12:59.183Z,34.80
2018-07-23T02:15:31.370Z,34.90
2018-07-23T02:23:04.990Z,35.00
2018-07-23T02:25:37.011Z,35.00
2018-07-23T02:28:08.978Z,35.00
2018-07-23T02:30:41.229Z,35.00
2018-07-23T02:33:13.242Z,35.10
2018-07-23T02:35:45.288Z,35.10
2018-07-23T02:38:17.178Z,35.20
2018-07-23T02:40:49.683Z,35.20
2018-07-23T02:43:21.647Z,35.20
2018-07-23T02:45:53.763Z,35.30
2018-07-23T02:48:26.435Z,35.30
2018-07-23T02:53:29.710Z,35.30
2018-07-23T02:56:01.531Z,35.40
2018-07-23T02:58:33.643Z,35.50
2018-07-23T03:01:05.515Z,35.60
2018-07-23T03:03:37.925Z,35.60
2018-07-23T03:06:10.061Z,35.60
2018-07-23T03:08:41.702Z,35.70
2018-07-23T03:11:13.738Z,35.70
2018-07-23T03:13:45.412Z,35.80
2018-07-23T03:16:17.802Z,35.80
2018-07-23T03:18:49.874Z,35.90
2018-07-23T03:21:21.950Z,36.00
2018-07-23T03:23:53.855Z,36.00
2018-07-23T03:26:25.934Z,36.10
2018-07-23T03:28:57.877Z,36.10
2018-07-23T03:31:30.122Z,36.20
2018-07-23T03:34:01.974Z,36.30
2018-07-23T03:36:34.138Z,36.40
2018-07-23T03:39:07.874Z,36.40
2018-07-23T03:41:39.958Z,36.50
2018-07-23T03:44:11.930Z,36.60
2018-07-23T03:46:44.012Z,36.60
2018-07-23T03:49:16.685Z,36.70
2018-07-23T03:51:48.710Z,36.80
2018-07-23T03:54:20.650Z,37.00
2018-07-23T03:56:52.775Z,37.20
2018-07-23T04:01:55.751Z,37.40
2018-07-23T04:04:27.932Z,37.50
2018-07-23T04:07:00.043Z,37.60
2018-07-23T04:09:32.371Z,37.70
2018-07-23T04:12:04.675Z,37.80
2018-07-23T04:14:36.494Z,38.00
2018-07-23T04:22:11.578Z,38.20
2018-07-23T04:24:43.578Z,38.30
2018-07-23T04:27:15.576Z,38.40
2018-07-23T04:29:47.278Z,38.60
2018-07-23T04:32:19.945Z,38.70
2018-07-23T04:34:51.951Z,39.00
2018-07-23T04:37:24.142Z,39.10
2018-07-23T04:39:55.809Z,39.30
2018-07-23T04:42:27.790Z,39.50
2018-07-23T04:44:59.575Z,39.60
2018-07-23T04:47:31.602Z,39.90
2018-07-23T04:50:04.314Z,40.20
2018-07-23T04:52:37.551Z,40.70
2018-07-23T04:55:09.335Z,41.40
2018-07-23T05:00:12.780Z,42.50
2018-07-23T05:02:44.778Z,42.70
2018-07-23T05:05:18.155Z,42.60
2018-07-23T05:07:50.095Z,42.10
2018-07-23T05:10:21.925Z,42.30
2018-07-23T05:12:54.193Z,42.40
2018-07-23T05:15:26.053Z,42.40
2018-07-23T05:17:58.287Z,42.40
2018-07-23T05:20:30.320Z,42.50
2018-07-23T05:23:02.535Z,42.90
2018-07-23T05:25:34.446Z,43.70
2018-07-23T05:28:06.663Z,44.10
2018-07-23T05:30:38.522Z,44.10
2018-07-23T05:33:10.930Z,44.30
2018-07-23T05:35:42.826Z,44.70
2018-07-23T05:38:15.255Z,44.90
2018-07-23T05:40:47.150Z,44.90
2018-07-23T05:43:19.149Z,44.40
2018-07-23T05:45:51.114Z,44.10
2018-07-23T05:48:23.698Z,44.10
2018-07-23T05:50:56.158Z,43.90
2018-07-23T05:53:28.214Z,43.80
2018-07-23T05:56:00.089Z,43.60
2018-07-23T05:58:32.414Z,43.80
2018-07-23T06:01:04.274Z,43.90
2018-07-23T06:03:36.242Z,44.00
2018-07-23T06:06:08.236Z,44.70
2018-07-23T06:08:40.299Z,45.50
2018-07-23T06:11:12.264Z,45.70
2018-07-23T06:13:45.474Z,45.80
2018-07-23T06:16:17.246Z,46.10
2018-07-23T06:18:49.192Z,45.60
2018-07-23T06:21:20.955Z,45.90
2018-07-23T06:23:53.070Z,46.20
2018-07-23T06:26:24.860Z,45.80
2018-07-23T06:28:57.438Z,45.60
2018-07-23T06:31:29.203Z,45.80
2018-07-23T06:34:01.218Z,45.90
2018-07-23T06:36:33.302Z,45.40
2018-07-23T06:39:05.655Z,45.30
2018-07-23T06:41:38.206Z,45.40
2018-07-23T06:44:10.919Z,45.10
2018-07-23T06:46:42.877Z,45.00
2018-07-23T06:49:14.991Z,45.10
2018-07-23T06:51:47.878Z,45.10
2018-07-23T06:54:20.030Z,45.00
2018-07-23T06:56:51.758Z,45.10
2018-07-23T06:59:23.712Z,45.30
2018-07-23T07:01:55.436Z,45.10
2018-07-23T07:04:27.778Z,45.80
2018-07-23T07:06:59.775Z,46.00
2018-07-23T07:09:31.948Z,46.80
2018-07-23T07:12:03.839Z,46.80
2018-07-23T07:14:36.981Z,47.20
2018-07-23T07:17:08.653Z,46.80
2018-07-23T07:19:41.253Z,47.00
2018-07-23T07:22:13.086Z,47.00
2018-07-23T07:24:45.005Z,46.40
2018-07-23T07:27:16.939Z,46.10
2018-07-23T07:29:49.143Z,45.20
2018-07-23T07:32:21.254Z,45.10
2018-07-23T07:34:53.331Z,44.80
2018-07-23T07:37:25.625Z,44.20
2018-07-23T07:39:57.621Z,44.10
2018-07-23T07:42:29.406Z,43.40
2018-07-23T07:45:01.407Z,43.90
2018-07-23T07:47:33.163Z,43.60
2018-07-23T07:50:05.467Z,43.30
2018-07-23T07:52:38.152Z,43.60
2018-07-23T07:55:10.094Z,43.30
2018-07-23T08:02:44.138Z,43.60
2018-07-23T08:05:16.642Z,43.40
2018-07-23T08:07:48.609Z,43.60
2018-07-23T08:10:20.823Z,43.50
2018-07-23T08:12:52.859Z,43.20
2018-07-23T08:15:25.116Z,43.20
2018-07-23T08:17:56.870Z,43.20
2018-07-23T08:20:28.906Z,43.40
2018-07-23T08:23:01.001Z,43.50
2018-07-23T08:25:33.153Z,43.30
2018-07-23T08:33:07.655Z,43.40
2018-07-23T08:35:40.313Z,43.10
2018-07-23T08:38:12.014Z,43.30
2018-07-23T08:40:44.555Z,43.30
2018-07-23T08:43:16.215Z,43.00
2018-07-23T08:45:48.210Z,43.10
2018-07-23T08:48:20.218Z,43.10
2018-07-23T08:50:52.493Z,43.10
2018-07-23T08:53:25.130Z,42.90
2018-07-23T08:55:57.999Z,42.90
2018-07-23T08:58:29.997Z,43.00
2018-07-23T09:01:02.434Z,43.00
2018-07-23T09:03:34.298Z,43.00
2018-07-23T09:06:06.430Z,43.10
2018-07-23T09:08:38.372Z,43.10
2018-07-23T09:11:10.963Z,43.10
2018-07-23T09:13:42.695Z,43.30
2018-07-23T09:16:14.675Z,43.20
2018-07-23T09:18:46.637Z,43.10
2018-07-23T09:21:19.030Z,43.10
2018-07-23T09:23:50.844Z,42.90
2018-07-23T09:26:23.023Z,42.90
2018-07-23T09:28:55.018Z,42.80
2018-07-23T09:31:27.283Z,43.00
2018-07-23T09:33:59.189Z,42.80
2018-07-23T09:39:02.369Z,42.70
2018-07-23T09:41:34.417Z,42.80
2018-07-23T09:44:06.217Z,42.40
2018-07-23T09:46:38.388Z,42.40
2018-07-23T09:49:10.341Z,42.40
2018-07-23T09:51:42.506Z,42.40
2018-07-23T09:54:15.162Z,42.30
2018-07-23T09:56:47.160Z,42.30
2018-07-23T09:59:18.997Z,42.30
2018-07-23T10:01:51.095Z,42.20
2018-07-23T10:04:22.963Z,42.20
2018-07-23T10:06:54.968Z,42.20
2018-07-23T10:09:27.029Z,42.00
2018-07-23T10:11:59.290Z,42.20
2018-07-23T10:17:02.099Z,42.10
2018-07-23T10:19:33.954Z,41.90
2018-07-23T10:22:06.289Z,41.90
2018-07-23T10:24:38.109Z,42.00
2018-07-23T10:27:10.907Z,42.00
2018-07-23T10:29:42.703Z,42.00
2018-07-23T10:32:15.263Z,42.00
2018-07-23T10:34:47.097Z,42.20
2018-07-23T10:37:19.779Z,42.10
2018-07-23T10:39:51.719Z,42.30
2018-07-23T10:42:23.534Z,42.40
2018-07-23T10:44:55.702Z,42.20
2018-07-23T10:47:27.683Z,42.00
2018-07-23T10:49:59.607Z,42.00
2018-07-23T10:52:32.177Z,42.10
2018-07-23T10:55:04.546Z,42.00
2018-07-23T10:57:36.871Z,42.00
2018-07-23T11:00:09.917Z,42.10
2018-07-23T11:02:41.919Z,42.10
2018-07-23T11:05:13.537Z,41.80
2018-07-23T11:07:45.567Z,41.70
2018-07-23T11:10:17.872Z,41.70
2018-07-23T11:12:49.956Z,41.60
2018-07-23T11:15:21.702Z,41.70
2018-07-23T11:17:53.630Z,41.60
2018-07-23T11:20:25.542Z,41.70
2018-07-23T11:22:57.551Z,41.70
2018-07-23T11:25:39.408Z,41.60
2018-07-23T11:28:02.150Z,41.50
2018-07-23T11:30:33.993Z,41.50
2018-07-23T11:33:05.906Z,41.60
2018-07-23T11:35:37.752Z,41.70
2018-07-23T11:38:09.915Z,41.70
2018-07-23T11:40:41.877Z,41.60
2018-07-23T11:43:14.228Z,41.60
2018-07-23T11:45:45.984Z,41.60
2018-07-23T11:48:17.833Z,41.40
2018-07-23T11:50:49.569Z,41.20
2018-07-23T11:53:21.807Z,41.10
2018-07-23T11:55:54.948Z,41.00
2018-07-23T11:58:27.020Z,40.80
2018-07-23T12:00:58.829Z,40.70
2018-07-23T12:03:30.847Z,40.70
2018-07-23T12:06:02.812Z,40.90
2018-07-23T12:08:34.923Z,40.80
2018-07-23T12:11:06.989Z,40.80
2018-07-23T12:13:39.115Z,40.70
2018-07-23T12:16:12.222Z,40.60
2018-07-23T12:18:44.338Z,40.50
2018-07-23T12:21:16.199Z,40.70
2018-07-23T12:23:48.115Z,40.60
2018-07-23T12:26:21.018Z,40.50
2018-07-23T12:28:52.978Z,40.40
2018-07-23T12:31:24.592Z,40.40
2018-07-23T12:33:56.634Z,40.60
2018-07-23T12:36:28.405Z,40.50
2018-07-23T12:39:00.309Z,40.60
2018-07-23T12:41:32.238Z,40.60
2018-07-23T12:44:04.383Z,40.50
2018-07-23T12:46:36.225Z,40.50
2018-07-23T12:49:08.246Z,40.50
2018-07-23T12:51:39.820Z,40.40
2018-07-23T12:54:12.498Z,40.30
2018-07-23T12:56:44.918Z,40.30
2018-07-23T12:59:17.040Z,40.20
2018-07-23T13:01:49.005Z,40.20
2018-07-23T13:04:21.234Z,40.20
2018-07-23T13:06:53.159Z,40.20
2018-07-23T13:11:56.030Z,40.20
2018-07-23T13:14:28.067Z,40.10
2018-07-23T13:17:00.071Z,40.10
2018-07-23T13:19:32.466Z,40.00
2018-07-23T13:22:04.251Z,39.90
2018-07-23T13:24:37.777Z,39.90
2018-07-23T13:27:09.471Z,39.70
2018-07-23T13:29:41.942Z,39.70
2018-07-23T13:32:14.170Z,39.70
2018-07-23T13:34:46.356Z,39.70
2018-07-23T13:37:18.334Z,39.60
2018-07-23T13:39:50.919Z,39.60
2018-07-23T13:42:22.749Z,39.60
2018-07-23T13:44:55.003Z,39.50
2018-07-23T13:47:27.002Z,39.50
2018-07-23T13:49:59.198Z,39.40
2018-07-23T13:52:30.956Z,39.30
2018-07-23T13:55:03.323Z,39.20
2018-07-23T14:00:09.026Z,39.20
2018-07-23T14:02:40.903Z,39.10
2018-07-23T14:05:13.158Z,38.90
2018-07-23T14:07:45.019Z,38.90
2018-07-23T14:10:17.190Z,38.90
2018-07-23T14:12:49.250Z,38.90
2018-07-23T14:15:21.488Z,38.90
2018-07-23T14:17:53.513Z,38.80
2018-07-23T14:20:25.708Z,38.80
2018-07-23T14:22:57.609Z,38.70
2018-07-23T14:25:30.327Z,38.70
2018-07-23T14:28:02.182Z,38.70
2018-07-23T14:30:34.102Z,38.60
2018-07-23T14:33:06.039Z,38.60
2018-07-23T14:35:38.340Z,38.50
2018-07-23T14:38:10.270Z,38.50
2018-07-23T14:40:42.389Z,38.30
2018-07-23T14:43:14.390Z,38.20
2018-07-23T14:45:46.626Z,38.20
2018-07-23T14:48:18.529Z,38.00
2018-07-23T14:50:50.618Z,38.00
2018-07-23T14:53:22.555Z,37.80
2018-07-23T14:55:54.717Z,37.80
2018-07-23T14:58:27.891Z,37.70
2018-07-23T15:00:59.670Z,37.70
2018-07-23T15:03:31.987Z,37.70
2018-07-23T15:06:04.669Z,37.70
2018-07-23T15:08:36.638Z,37.70
2018-07-23T15:11:08.403Z,37.60
2018-07-23T15:13:40.115Z,37.60
2018-07-23T15:16:12.027Z,37.60
2018-07-23T15:18:44.003Z,37.60
2018-07-23T15:21:16.293Z,37.60
2018-07-23T15:23:48.211Z,37.50
2018-07-23T15:26:20.530Z,37.50
2018-07-23T15:28:52.334Z,37.40
2018-07-23T15:31:24.327Z,37.30
2018-07-23T15:33:56.255Z,37.20
2018-07-23T15:36:28.319Z,37.20
2018-07-23T15:39:00.224Z,37.20
2018-07-23T15:41:32.063Z,37.20
2018-07-23T15:44:03.830Z,37.20
2018-07-23T15:46:35.663Z,37.10
2018-07-23T15:49:07.587Z,37.10
2018-07-23T15:51:39.972Z,37.10
2018-07-23T15:54:11.833Z,37.00
2018-07-23T15:56:44.098Z,36.90
2018-07-23T15:59:17.000Z,36.90
2018-07-23T16:01:48.919Z,37.00
2018-07-23T16:04:20.785Z,36.90
2018-07-23T16:06:52.805Z,37.10
2018-07-23T16:09:24.713Z,37.00
2018-07-23T16:11:56.613Z,37.00
2018-07-23T16:14:28.165Z,37.10
2018-07-23T16:17:00.218Z,37.10
2018-07-23T16:19:31.745Z,37.00
2018-07-23T16:22:03.983Z,37.00
2018-07-23T16:24:35.693Z,36.90
2018-07-23T16:27:07.776Z,36.90
2018-07-23T16:29:39.460Z,36.80
2018-07-23T16:32:11.960Z,36.80
2018-07-23T16:34:43.638Z,36.70
2018-07-23T16:39:46.831Z,36.70
2018-07-23T16:42:18.961Z,36.80
2018-07-23T16:44:50.777Z,36.80
2018-07-23T16:47:22.842Z,36.70
2018-07-23T16:49:54.993Z,36.70
2018-07-23T16:54:58.486Z,36.70
2018-07-23T16:57:30.701Z,36.70
2018-07-23T17:00:04.006Z,36.70
2018-07-23T17:05:06.954Z,36.60
2018-07-23T17:07:39.823Z,36.70
2018-07-23T17:10:11.910Z,36.70
2018-07-23T17:15:14.872Z,36.70
2018-07-23T17:17:47.207Z,36.70
2018-07-23T17:20:19.021Z,36.60
2018-07-23T17:22:50.713Z,36.70
2018-07-23T17:25:22.210Z,36.70
2018-07-23T17:27:54.156Z,36.70
2018-07-23T17:30:25.942Z,36.60
2018-07-23T17:35:29.338Z,36.70
2018-07-23T17:38:01.373Z,36.50
2018-07-23T17:40:33.034Z,36.60
2018-07-23T17:43:05.112Z,36.60
2018-07-23T17:45:36.945Z,36.40
2018-07-23T17:48:09.450Z,36.60
2018-07-23T17:50:41.357Z,36.60
2018-07-23T17:53:13.461Z,36.60
2018-07-23T17:55:45.413Z,36.60
2018-07-23T17:58:17.645Z,36.50
2018-07-23T18:00:50.834Z,36.50
2018-07-23T18:03:22.658Z,36.60
2018-07-23T18:05:54.357Z,36.60
2018-07-23T18:08:26.265Z,36.60
2018-07-23T18:10:59.442Z,36.50
2018-07-23T18:13:31.607Z,36.50
2018-07-23T18:16:03.556Z,36.50
2018-07-23T18:18:35.956Z,36.50
2018-07-23T18:21:07.905Z,36.50
2018-07-23T18:23:39.994Z,36.50
2018-07-23T18:26:11.938Z,36.60
2018-07-23T18:28:44.138Z,36.60
2018-07-23T18:31:16.159Z,36.60
2018-07-23T18:33:48.369Z,36.60
2018-07-23T18:36:20.430Z,36.60
2018-07-23T18:38:55.271Z,36.60
2018-07-23T18:41:26.985Z,36.50
2018-07-23T18:43:58.993Z,36.40
2018-07-23T18:46:30.858Z,36.40
2018-07-23T18:51:51.350Z,36.40
2018-07-23T18:54:24.819Z,36.40
2018-07-23T18:56:58.142Z,36.40
2018-07-23T18:59:30.239Z,36.30
2018-07-23T19:02:04.279Z,36.30
2018-07-23T19:04:36.946Z,36.20
2018-07-23T19:09:40.294Z,36.30
2018-07-23T19:12:12.382Z,36.30
2018-07-23T19:14:44.188Z,36.20
2018-07-23T19:17:16.360Z,36.20
2018-07-23T19:19:48.149Z,36.20
2018-07-23T19:22:21.078Z,36.10
2018-07-23T19:24:53.158Z,36.20
2018-07-23T19:27:24.826Z,36.20
2018-07-23T19:29:57.303Z,36.20
2018-07-23T19:32:29.485Z,36.20
2018-07-23T19:35:01.435Z,36.10
2018-07-23T19:37:33.180Z,36.10
2018-07-23T19:40:05.314Z,36.10
2018-07-23T19:42:36.953Z,36.20
2018-07-23T19:45:09.250Z,36.20
2018-07-23T19:47:41.131Z,36.10
2018-07-23T19:50:13.246Z,36.20
2018-07-23T19:52:45.134Z,36.10
2018-07-23T19:55:17.931Z,36.20
2018-07-23T19:57:49.541Z,36.10
2018-07-23T20:00:21.708Z,36.00
2018-07-23T20:02:55.301Z,36.00
2018-07-23T20:05:27.170Z,36.10
2018-07-23T20:07:58.998Z,36.00
2018-07-23T20:10:31.090Z,36.00
2018-07-23T20:13:03.140Z,36.00
2018-07-23T20:15:35.483Z,35.90
2018-07-23T20:18:07.391Z,35.90
2018-07-23T20:23:10.773Z,36.00
2018-07-23T20:25:42.977Z,36.00
2018-07-23T20:28:14.936Z,35.90
2018-07-23T20:30:46.849Z,36.00
2018-07-23T20:33:19.276Z,35.90
2018-07-23T20:35:51.262Z,35.90
2018-07-23T20:38:23.054Z,35.90
2018-07-23T20:40:55.154Z,35.90
2018-07-23T20:43:29.038Z,35.90
2018-07-23T20:46:01.307Z,35.90
2018-07-23T20:48:33.005Z,35.90
2018-07-23T20:51:05.028Z,35.80
2018-07-23T20:53:37.344Z,35.80
2018-07-23T20:56:09.525Z,35.80
2018-07-23T21:01:12.568Z,35.70
2018-07-23T21:03:45.455Z,35.70
2018-07-23T21:06:17.812Z,35.60
2018-07-23T21:08:49.609Z,35.60
2018-07-23T21:11:21.513Z,35.60
2018-07-23T21:13:53.325Z,35.60
2018-07-23T21:16:25.387Z,35.50
2018-07-23T21:18:57.421Z,35.50
2018-07-23T21:21:29.550Z,35.40
2018-07-23T21:24:01.653Z,35.40
2018-07-23T21:26:33.758Z,35.40
2018-07-23T21:29:05.666Z,35.40
2018-07-23T21:34:08.973Z,35.40
2018-07-23T21:36:40.925Z,35.40
2018-07-23T21:39:12.626Z,35.40
2018-07-23T21:41:44.738Z,35.40
2018-07-23T21:44:16.697Z,35.40
2018-07-23T21:46:48.946Z,35.40
2018-07-23T21:49:20.729Z,35.40
2018-07-23T21:51:53.034Z,35.40
2018-07-23T21:54:24.906Z,35.40
2018-07-23T21:56:57.068Z,35.30
2018-07-23T21:59:29.046Z,35.30
2018-07-23T22:02:01.278Z,35.30
2018-07-23T22:04:34.364Z,35.30
2018-07-23T22:07:06.659Z,35.30
2018-07-23T22:09:38.321Z,35.20
2018-07-23T22:12:10.896Z,35.20
2018-07-23T22:14:42.722Z,35.20
2018-07-23T22:17:15.514Z,35.20
2018-07-23T22:19:47.489Z,35.10
2018-07-23T22:22:19.938Z,35.10
2018-07-23T22:24:51.897Z,35.10
2018-07-23T22:27:24.025Z,35.10
2018-07-23T22:29:55.970Z,35.10
2018-07-23T22:32:28.892Z,35.00
2018-07-23T22:35:01.133Z,35.00
2018-07-23T22:37:33.110Z,35.00
2018-07-23T22:40:04.846Z,35.10
2018-07-23T22:42:38.310Z,35.00
2018-07-23T22:45:10.375Z,34.90
2018-07-23T22:47:42.301Z,34.90
2018-07-23T22:50:14.175Z,34.80
2018-07-23T22:52:46.437Z,34.80
2018-07-23T22:55:18.405Z,34.70
2018-07-23T22:57:51.442Z,34.80
2018-07-23T23:00:23.140Z,34.70
2018-07-23T23:02:54.964Z,34.70
2018-07-23T23:05:27.401Z,34.70
2018-07-23T23:07:59.273Z,34.70
2018-07-23T23:10:31.138Z,34.70
2018-07-23T23:13:03.598Z,34.70
2018-07-23T23:15:35.607Z,34.70
2018-07-23T23:18:07.706Z,34.70
2018-07-23T23:20:39.492Z,34.70
2018-07-23T23:23:11.373Z,34.70
2018-07-23T23:25:42.950Z,34.70
2018-07-23T23:28:15.110Z,34.70
2018-07-23T23:30:46.855Z,34.70
2018-07-23T23:33:18.809Z,34.70
2018-07-23T23:35:50.641Z,34.60
2018-07-23T23:38:22.513Z,34.60
2018-07-23T23:40:54.558Z,34.60
2018-07-23T23:43:26.537Z,34.60
2018-07-23T23:45:58.107Z,34.60
2018-07-23T23:48:30.178Z,34.60
2018-07-23T23:51:02.013Z,34.60
2018-07-23T23:53:34.125Z,34.60
2018-07-23T23:56:06.143Z,34.60
